createdAt,value
2024-02-08T00:01:04.196Z,98942.06
2024-02-08T00:03:37.147Z,98943.88
2024-02-08T00:06:10.088Z,98948.34
2024-02-08T00:08:44.402Z,98945.81
2024-02-08T00:11:17.342Z,98957.28
2024-02-08T00:13:50.233Z,98960.91
2024-02-08T00:16:23.177Z,98956.69
2024-02-08T00:18:57.069Z,98956.75
2024-02-08T00:21:32.385Z,98960.34
2024-02-08T00:24:07.114Z,98961.34
2024-02-08T00:26:42.795Z,98965.78
2024-02-08T00:29:15.920Z,98959.59
2024-02-08T00:31:50.260Z,98959.56
2024-02-08T00:34:24.270Z,98963.78
2024-02-08T00:36:56.984Z,98959.75
2024-02-08T00:39:31.422Z,98969.56
2024-02-08T00:42:04.509Z,98972.09
2024-02-08T00:44:37.437Z,98969.31
2024-02-08T00:47:10.682Z,98961.28
2024-02-08T00:49:44.150Z,98969.22
2024-02-08T00:52:19.804Z,98975.34
2024-02-08T00:54:54.095Z,98977.19
2024-02-08T00:57:29.752Z,98984.28
2024-02-08T01:00:03.185Z,98979.09
2024-02-08T01:02:36.122Z,98985.28
2024-02-08T01:05:09.564Z,98985.44
2024-02-08T01:07:42.535Z,98989.94
2024-02-08T01:10:16.829Z,98985.66
2024-02-08T01:12:49.818Z,98993.72
2024-02-08T01:15:23.533Z,98989.47
2024-02-08T01:17:56.438Z,98989.66
2024-02-08T01:20:29.767Z,98990.59
2024-02-08T01:23:05.992Z,98995.06
2024-02-08T01:25:42.785Z,98995.25
2024-02-08T01:28:16.346Z,98991.91
2024-02-08T01:30:49.426Z,98988.50
2024-02-08T01:33:22.284Z,98990.25
2024-02-08T01:35:55.186Z,98986.06
2024-02-08T01:38:28.712Z,98982.63
2024-02-08T01:41:03.086Z,98987.94
2024-02-08T01:43:36.079Z,98985.34
2024-02-08T01:46:10.303Z,98987.22
2024-02-08T01:48:46.079Z,98990.84
2024-02-08T01:51:23.411Z,98994.34
2024-02-08T01:53:57.063Z,98995.28
2024-02-08T01:56:32.951Z,98994.44
2024-02-08T01:59:06.895Z,98982.34
2024-02-08T02:01:47.591Z,98988.19
2024-02-08T02:04:21.118Z,98984.25
2024-02-08T02:06:54.093Z,98985.28
2024-02-08T02:09:27.181Z,98981.84
2024-02-08T02:12:05.656Z,98983.72
2024-02-08T02:14:40.087Z,98982.06
2024-02-08T02:17:14.093Z,98979.53
2024-02-08T02:19:48.118Z,98987.13
2024-02-08T02:22:23.230Z,98988.34
2024-02-08T02:24:58.916Z,98986.69
2024-02-08T02:27:32.469Z,98985.00
2024-02-08T02:30:07.660Z,98988.56
2024-02-08T02:32:42.403Z,98992.19
2024-02-08T02:35:17.834Z,99000.13
2024-02-08T02:37:52.518Z,99006.31
2024-02-08T02:40:25.723Z,99010.66
2024-02-08T02:42:59.114Z,99001.81
2024-02-08T02:45:33.820Z,98996.53
2024-02-08T02:48:07.503Z,98997.38
2024-02-08T02:50:43.304Z,98996.53
2024-02-08T02:53:18.650Z,99005.44
2024-02-08T02:55:51.664Z,99005.44
2024-02-08T02:58:24.783Z,99006.44
2024-02-08T03:01:05.734Z,99010.91
2024-02-08T03:03:39.997Z,99011.88
2024-02-08T03:06:16.708Z,99015.38
2024-02-08T03:08:51.520Z,99018.06
2024-02-08T03:11:24.727Z,99008.47
2024-02-08T03:13:57.787Z,99016.34
2024-02-08T03:16:37.599Z,99017.28
2024-02-08T03:19:11.693Z,99014.69
2024-02-08T03:21:46.345Z,99018.13
2024-02-08T03:24:21.651Z,99024.25
2024-02-08T03:26:56.931Z,99026.75
2024-02-08T03:29:35.719Z,99019.75
2024-02-08T03:32:09.474Z,99030.13
2024-02-08T03:34:42.509Z,99031.78
2024-02-08T03:37:15.495Z,99025.56
2024-02-08T03:39:49.787Z,99031.69
2024-02-08T03:42:23.453Z,99031.66
2024-02-08T03:44:56.336Z,99034.19
2024-02-08T03:47:29.265Z,99033.19
2024-02-08T03:50:02.322Z,99042.81
2024-02-08T03:52:35.377Z,99039.28
2024-02-08T03:55:09.758Z,99037.50
2024-02-08T03:57:42.891Z,99040.09
2024-02-08T04:00:29.158Z,99040.94
2024-02-08T04:03:05.897Z,99044.38
2024-02-08T04:05:43.935Z,99046.09
2024-02-08T04:08:44.619Z,99045.28
2024-02-08T04:11:36.162Z,99047.09
2024-02-08T04:14:26.777Z,99049.81
2024-02-08T04:17:17.296Z,99048.06
2024-02-08T04:20:07.869Z,99054.22
2024-02-08T04:22:58.381Z,99057.88
2024-02-08T04:25:48.858Z,99060.50
2024-02-08T04:28:40.488Z,99055.28
2024-02-08T04:31:30.915Z,99054.50
2024-02-08T04:34:22.632Z,99051.94
2024-02-08T04:37:12.940Z,99051.16
2024-02-08T04:40:03.480Z,99051.22
2024-02-08T04:42:54.046Z,99046.13
2024-02-08T04:45:48.234Z,99036.56
2024-02-08T04:48:39.026Z,99046.22
2024-02-08T04:51:29.747Z,99048.97
2024-02-08T04:54:03.740Z,99049.91
2024-02-08T04:56:37.103Z,99046.50
2024-02-08T04:59:21.599Z,99055.34
2024-02-08T05:01:57.933Z,99049.31
2024-02-08T05:04:31.137Z,99057.22
2024-02-08T05:07:05.201Z,99058.06
2024-02-08T05:09:41.230Z,99060.75
2024-02-08T05:12:14.516Z,99058.19
2024-02-08T05:14:47.356Z,99059.94
2024-02-08T05:17:23.371Z,99063.38
2024-02-08T05:19:56.527Z,99061.56
2024-02-08T05:22:31.761Z,99072.91
2024-02-08T05:25:11.274Z,99064.16
2024-02-08T05:27:44.385Z,99073.72
2024-02-08T05:30:20.429Z,99075.41
2024-02-08T05:32:55.265Z,99070.19
2024-02-08T05:35:28.437Z,99067.53
2024-02-08T05:38:02.433Z,99069.22
2024-02-08T05:40:35.291Z,99064.44
2024-02-08T05:43:08.871Z,99055.06
2024-02-08T05:45:45.041Z,99066.47
2024-02-08T05:48:19.456Z,99074.38
2024-02-08T05:50:58.422Z,99074.41
2024-02-08T05:53:33.704Z,99073.56
2024-02-08T05:56:09.319Z,99078.03
2024-02-08T05:58:42.247Z,99077.22
2024-02-08T06:01:21.344Z,99083.41
2024-02-08T06:04:01.425Z,99084.34
2024-02-08T06:06:35.663Z,99077.41
2024-02-08T06:09:10.951Z,99080.13
2024-02-08T06:11:44.884Z,99088.97
2024-02-08T06:14:23.224Z,99076.78
2024-02-08T06:16:58.354Z,99095.22
2024-02-08T06:19:38.624Z,99104.00
2024-02-08T06:22:21.334Z,99098.81
2024-02-08T06:24:55.916Z,99096.22
2024-02-08T06:27:34.739Z,99103.19
2024-02-08T06:30:10.811Z,99106.69
2024-02-08T06:32:45.891Z,99103.19
2024-02-08T06:35:27.218Z,99104.00
2024-02-08T06:38:01.658Z,99103.13
2024-02-08T06:40:52.242Z,99104.78
2024-02-08T06:43:28.600Z,99102.09
2024-02-08T06:46:19.647Z,99098.50
2024-02-08T06:49:06.809Z,99087.88
2024-02-08T06:52:13.036Z,99096.50
2024-02-08T06:55:03.985Z,99097.28
2024-02-08T06:57:54.654Z,99099.00
2024-02-08T07:00:59.748Z,99103.16
2024-02-08T07:03:50.284Z,99098.66
2024-02-08T07:06:40.734Z,99104.69
2024-02-08T07:09:32.633Z,99098.47
2024-02-08T07:12:23.516Z,99105.31
2024-02-08T07:15:13.956Z,99106.09
2024-02-08T07:18:04.180Z,99105.03
2024-02-08T07:20:54.247Z,99114.47
2024-02-08T07:23:44.592Z,99115.13
2024-02-08T07:26:37.038Z,99114.06
2024-02-08T07:29:27.273Z,99118.25
2024-02-08T07:32:17.535Z,99111.06
2024-02-08T07:35:08.204Z,99120.44
2024-02-08T07:37:41.319Z,99118.44
2024-02-08T07:40:25.886Z,99120.78
2024-02-08T07:43:16.168Z,99121.28
2024-02-08T07:45:53.286Z,99118.16
2024-02-08T07:48:41.133Z,99115.06
2024-02-08T07:51:17.280Z,99112.16
2024-02-08T07:53:55.485Z,99117.97
2024-02-08T07:56:38.460Z,99119.47
2024-02-08T07:59:17.300Z,99118.28
2024-02-08T08:01:51.643Z,99120.59
2024-02-08T08:04:42.227Z,99121.91
2024-02-08T08:07:24.153Z,99128.31
2024-02-08T08:10:08.742Z,99126.97
2024-02-08T08:12:48.085Z,99112.47
2024-02-08T08:15:23.531Z,99113.78
2024-02-08T08:18:02.389Z,99107.94
2024-02-08T08:20:58.372Z,99110.44
2024-02-08T08:23:30.309Z,99103.41
2024-02-08T08:26:23.186Z,99104.56
2024-02-08T08:29:03.506Z,99105.84
2024-02-08T08:31:38.999Z,99111.00
2024-02-08T08:34:32.850Z,99109.97
2024-02-08T08:37:26.040Z,99108.06
2024-02-08T08:40:16.994Z,99110.78
2024-02-08T08:42:51.862Z,99107.88
2024-02-08T08:45:26.951Z,99099.00
2024-02-08T08:48:03.046Z,99103.44
2024-02-08T08:50:36.501Z,99086.69
2024-02-08T08:53:18.263Z,99095.34
2024-02-08T08:55:52.184Z,99085.72
2024-02-08T08:58:37.669Z,99091.03
2024-02-08T09:01:16.994Z,99090.09
2024-02-08T09:04:10.542Z,99095.34
2024-02-08T09:06:43.950Z,99100.81
2024-02-08T09:09:29.767Z,99106.34
2024-02-08T09:12:02.864Z,99100.38
2024-02-08T09:14:35.747Z,99104.75
2024-02-08T09:17:24.353Z,99101.97
2024-02-08T09:20:00.850Z,99102.22
2024-02-08T09:22:36.241Z,99103.72
2024-02-08T09:25:22.995Z,99100.81
2024-02-08T09:28:25.506Z,99094.69
2024-02-08T09:31:13.886Z,99087.28
2024-02-08T09:33:49.367Z,99090.75
2024-02-08T09:36:24.686Z,99085.72
2024-02-08T09:39:00.548Z,99086.50
2024-02-08T09:41:35.743Z,99078.44
2024-02-08T09:44:13.177Z,99081.97
2024-02-08T09:46:57.976Z,99083.69
2024-02-08T09:49:36.473Z,99086.66
2024-02-08T09:52:18.065Z,99076.31
2024-02-08T09:54:56.421Z,99086.25
2024-02-08T09:57:42.208Z,99063.94
2024-02-08T10:00:35.028Z,99069.59
2024-02-08T10:03:09.104Z,99056.53
2024-02-08T10:05:52.684Z,99063.88
2024-02-08T10:08:30.352Z,99057.97
2024-02-08T10:11:12.866Z,99056.75
2024-02-08T10:13:57.330Z,99062.66
2024-02-08T10:16:48.966Z,99069.25
2024-02-08T10:19:45.233Z,99064.94
2024-02-08T10:22:28.223Z,99057.41
2024-02-08T10:25:20.399Z,99049.09
2024-02-08T10:27:57.529Z,99028.66
2024-02-08T10:30:30.466Z,99033.72
2024-02-08T10:33:06.079Z,99032.91
2024-02-08T10:35:41.541Z,99030.16
2024-02-08T10:38:26.594Z,99026.25
2024-02-08T10:41:03.625Z,99027.13
2024-02-08T10:43:38.769Z,99024.50
2024-02-08T10:46:18.123Z,99024.13
2024-02-08T10:48:51.933Z,99014.50
2024-02-08T10:51:28.504Z,99007.06
2024-02-08T10:54:07.527Z,98997.63
2024-02-08T10:56:46.586Z,98995.81
2024-02-08T10:59:40.478Z,98988.72
2024-02-08T11:02:33.270Z,98985.97
2024-02-08T11:05:22.741Z,98989.94
2024-02-08T11:07:56.149Z,98990.81
2024-02-08T11:10:33.774Z,98988.16
2024-02-08T11:13:12.284Z,98990.59
2024-02-08T11:15:51.538Z,98989.28
2024-02-08T11:18:35.545Z,98992.09
2024-02-08T11:21:14.567Z,99004.72
2024-02-08T11:23:53.212Z,99009.53
2024-02-08T11:26:28.273Z,99008.25
2024-02-08T11:29:19.837Z,99012.75
2024-02-08T11:31:53.037Z,99010.53
2024-02-08T11:34:35.441Z,99014.84
2024-02-08T11:37:17.592Z,99010.19
2024-02-08T11:40:01.447Z,99012.84
2024-02-08T11:42:37.590Z,99017.28
2024-02-08T11:45:23.528Z,99021.88
2024-02-08T11:47:59.600Z,99012.84
2024-02-08T11:50:37.625Z,99009.56
2024-02-08T11:53:10.868Z,99002.59
2024-02-08T11:55:46.391Z,98995.44
2024-02-08T11:58:21.523Z,98993.59
2024-02-08T12:00:57.406Z,99001.34
2024-02-08T12:03:30.585Z,98988.50
2024-02-08T12:06:05.223Z,98988.03
2024-02-08T12:08:43.263Z,98993.72
2024-02-08T12:11:23.666Z,98985.19
2024-02-08T12:14:06.855Z,98995.22
2024-02-08T12:16:51.610Z,98990.06
2024-02-08T12:19:25.624Z,98995.34
2024-02-08T12:22:00.818Z,98995.28
2024-02-08T12:24:36.378Z,98984.66
2024-02-08T12:27:16.643Z,98980.16
2024-02-08T12:29:57.934Z,98976.66
2024-02-08T12:32:34.855Z,98982.91
2024-02-08T12:35:15.832Z,98975.88
2024-02-08T12:37:51.060Z,98973.41
2024-02-08T12:40:30.513Z,98969.22
2024-02-08T12:43:09.339Z,98963.16
2024-02-08T12:45:42.917Z,98967.72
2024-02-08T12:48:21.880Z,98966.03
2024-02-08T12:50:56.225Z,98958.38
2024-02-08T12:53:29.209Z,98948.88
2024-02-08T12:56:12.456Z,98960.34
2024-02-08T12:58:47.124Z,98935.91
2024-02-08T13:01:20.409Z,98931.59
2024-02-08T13:03:56.520Z,98932.59
2024-02-08T13:06:29.720Z,98923.84
2024-02-08T13:09:26.825Z,98912.50
2024-02-08T13:12:16.031Z,98929.31
2024-02-08T13:15:03.956Z,98922.53
2024-02-08T13:17:37.177Z,98914.00
2024-02-08T13:20:15.784Z,98915.63
2024-02-08T13:22:50.361Z,98917.34
2024-02-08T13:25:29.070Z,98920.25
2024-02-08T13:28:03.547Z,98915.19
2024-02-08T13:30:38.055Z,98911.84
2024-02-08T13:33:12.420Z,98914.66
2024-02-08T13:35:47.417Z,98902.34
2024-02-08T13:38:23.971Z,98913.00
2024-02-08T13:41:00.565Z,98916.56
2024-02-08T13:43:34.435Z,98910.44
2024-02-08T13:46:09.219Z,98904.34
2024-02-08T13:48:42.259Z,98911.34
2024-02-08T13:51:17.971Z,98911.28
2024-02-08T13:53:51.241Z,98902.25
2024-02-08T13:56:24.150Z,98906.50
2024-02-08T13:59:01.687Z,98909.78
2024-02-08T14:01:34.777Z,98899.16
2024-02-08T14:04:07.716Z,98893.75
2024-02-08T14:06:43.819Z,98894.69
2024-02-08T14:09:22.039Z,98897.47
2024-02-08T14:11:57.027Z,98893.28
2024-02-08T14:14:41.710Z,98883.75
2024-02-08T14:17:21.714Z,98892.69
2024-02-08T14:19:56.768Z,98899.81
2024-02-08T14:22:40.105Z,98897.22
2024-02-08T14:25:24.989Z,98891.06
2024-02-08T14:27:58.091Z,98898.25
2024-02-08T14:30:35.343Z,98890.53
2024-02-08T14:33:08.460Z,98894.06
2024-02-08T14:35:41.425Z,98891.31
2024-02-08T14:38:15.713Z,98877.19
2024-02-08T14:40:49.276Z,98878.03
2024-02-08T14:43:32.881Z,98875.41
2024-02-08T14:46:06.402Z,98873.78
2024-02-08T14:48:39.533Z,98880.81
2024-02-08T14:51:30.619Z,98880.03
2024-02-08T14:54:05.206Z,98873.06
2024-02-08T14:56:42.346Z,98877.63
2024-02-08T14:59:15.644Z,98867.19
2024-02-08T15:01:54.057Z,98862.84
2024-02-08T15:04:27.338Z,98860.38
2024-02-08T15:07:08.363Z,98860.50
2024-02-08T15:09:50.429Z,98863.19
2024-02-08T15:12:34.022Z,98860.69
2024-02-08T15:15:08.751Z,98855.41
2024-02-08T15:17:45.256Z,98856.38
2024-02-08T15:20:35.797Z,98853.84
2024-02-08T15:26:38.334Z,98859.25
2024-02-08T15:29:20.356Z,98853.97
2024-02-08T15:31:57.482Z,98860.13
2024-02-08T15:34:41.618Z,98841.75
2024-02-08T15:37:15.222Z,98837.03
2024-02-08T15:40:12.743Z,98840.22
2024-02-08T15:42:50.466Z,98835.16
2024-02-08T15:45:28.709Z,98841.38
2024-02-08T15:48:05.131Z,98844.03
2024-02-08T15:50:47.711Z,98839.72
2024-02-08T15:53:21.494Z,98848.63
2024-02-08T15:55:57.895Z,98846.84
2024-02-08T15:58:46.027Z,98838.06
2024-02-08T16:01:41.659Z,98838.88
2024-02-08T16:04:42.808Z,98830.88
2024-02-08T16:07:16.981Z,98825.63
2024-02-08T16:09:51.470Z,98825.50
2024-02-08T16:12:25.409Z,98822.84
2024-02-08T16:15:06.783Z,98833.28
2024-02-08T16:17:59.272Z,98831.56
2024-02-08T16:20:40.112Z,98842.22
2024-02-08T16:23:15.689Z,98834.38
2024-02-08T16:25:59.952Z,98837.00
2024-02-08T16:28:38.442Z,98837.06
2024-02-08T16:31:26.117Z,98840.72
2024-02-08T16:34:09.400Z,98844.31
2024-02-08T16:36:51.077Z,98839.94
2024-02-08T16:39:34.246Z,98839.94
2024-02-08T16:42:19.306Z,98846.09
2024-02-08T16:44:58.237Z,98842.56
2024-02-08T16:47:36.911Z,98845.22
2024-02-08T16:50:19.081Z,98839.03
2024-02-08T16:52:59.810Z,98841.66
2024-02-08T16:55:38.857Z,98839.94
2024-02-08T16:58:31.556Z,98843.53
2024-02-08T17:01:20.136Z,98837.38
2024-02-08T17:04:17.997Z,98843.63
2024-02-08T17:07:00.051Z,98841.84
2024-02-08T17:09:44.964Z,98835.78
2024-02-08T17:12:28.532Z,98834.00
2024-02-08T17:15:21.507Z,98832.31
2024-02-08T17:17:58.801Z,98820.19
2024-02-08T17:20:41.652Z,98810.59
2024-02-08T17:23:20.815Z,98814.28
2024-02-08T17:26:01.752Z,98816.16
2024-02-08T17:28:37.863Z,98816.34
2024-02-08T17:31:23.200Z,98812.09
2024-02-08T17:33:59.263Z,98807.84
2024-02-08T17:36:34.215Z,98810.59
2024-02-08T17:39:07.767Z,98812.44
2024-02-08T17:41:44.368Z,98809.91
2024-02-08T17:44:17.533Z,98806.44
2024-02-08T17:46:54.360Z,98803.84
2024-02-08T17:49:27.697Z,98800.41
2024-02-08T17:52:02.117Z,98810.09
2024-02-08T17:54:46.411Z,98809.22
2024-02-08T17:57:25.346Z,98800.47
2024-02-08T18:00:00.914Z,98807.50
2024-02-08T18:02:38.601Z,98805.75
2024-02-08T18:05:15.875Z,98799.59
2024-02-08T18:07:57.147Z,98795.31
2024-02-08T18:10:39.371Z,98796.16
2024-02-08T18:13:15.332Z,98804.00
2024-02-08T18:15:52.216Z,98797.94
2024-02-08T18:18:25.763Z,98796.13
2024-02-08T18:21:00.239Z,98786.34
2024-02-08T18:23:36.589Z,98788.09
2024-02-08T18:26:12.537Z,98776.59
2024-02-08T18:29:08.662Z,98778.13
2024-02-08T18:31:55.325Z,98776.59
2024-02-08T18:34:35.102Z,98778.34
2024-02-08T18:37:13.438Z,98775.75
2024-02-08T18:39:48.029Z,98756.56
2024-02-08T18:42:22.114Z,98760.19
2024-02-08T18:44:54.991Z,98762.88
2024-02-08T18:47:34.514Z,98748.78
2024-02-08T18:50:09.020Z,98750.56
2024-02-08T18:52:43.481Z,98741.72
2024-02-08T18:55:35.073Z,98744.25
2024-02-08T18:58:11.911Z,98739.03
2024-02-08T19:00:47.676Z,98734.75
2024-02-08T19:03:22.032Z,98732.13
2024-02-08T19:05:56.336Z,98728.66
2024-02-08T19:08:31.395Z,98734.47
2024-02-08T19:11:07.727Z,98731.50
2024-02-08T19:13:42.214Z,98728.09
2024-02-08T19:16:17.599Z,98725.47
2024-02-08T19:18:53.584Z,98723.75
2024-02-08T19:21:28.432Z,98711.56
2024-02-08T19:24:03.265Z,98713.34
2024-02-08T19:26:38.799Z,98708.13
2024-02-08T19:29:16.496Z,98708.13
2024-02-08T19:31:49.586Z,98708.06
2024-02-08T19:34:22.978Z,98699.22
2024-02-08T19:36:59.696Z,98705.38
2024-02-08T19:39:38.770Z,98701.91
2024-02-08T19:42:22.954Z,98701.13
2024-02-08T19:44:57.338Z,98705.09
2024-02-08T19:47:32.830Z,98696.59
2024-02-08T19:50:09.645Z,98700.09
2024-02-08T19:52:46.260Z,98693.16
2024-02-08T19:55:31.396Z,98694.00
2024-02-08T19:58:09.210Z,98689.50
2024-02-08T20:03:22.019Z,98693.66
2024-02-08T20:05:55.233Z,98690.13
2024-02-08T20:08:30.601Z,98685.75
2024-02-08T20:11:12.643Z,98686.75
2024-02-08T20:13:47.617Z,98685.03
2024-02-08T20:16:27.094Z,98684.22
2024-02-08T20:19:02.591Z,98685.13
2024-02-08T20:21:35.638Z,98687.72
2024-02-08T20:24:13.014Z,98687.66
2024-02-08T20:26:49.356Z,98685.88
2024-02-08T20:29:24.251Z,98691.19
2024-02-08T20:31:57.900Z,98688.56
2024-02-08T20:34:34.535Z,98693.00
2024-02-08T20:37:12.679Z,98682.38
2024-02-08T20:39:48.655Z,98683.25
2024-02-08T20:42:25.028Z,98682.34
2024-02-08T20:44:59.585Z,98692.75
2024-02-08T20:47:35.356Z,98693.50
2024-02-08T20:50:11.883Z,98696.13
2024-02-08T20:52:45.464Z,98689.91
2024-02-08T20:55:21.306Z,98685.53
2024-02-08T20:57:54.822Z,98688.09
2024-02-08T21:00:32.463Z,98691.66
2024-02-08T21:03:06.097Z,98692.59
2024-02-08T21:05:40.789Z,98692.69
2024-02-08T21:08:17.574Z,98690.19
2024-02-08T21:10:53.370Z,98685.03
2024-02-08T21:13:26.880Z,98691.25
2024-02-08T21:16:01.655Z,98694.88
2024-02-08T21:18:38.227Z,98695.00
2024-02-08T21:21:13.552Z,98686.41
2024-02-08T21:23:46.724Z,98694.38
2024-02-08T21:26:22.770Z,98692.59
2024-02-08T21:28:55.658Z,98690.91
2024-02-08T21:31:30.157Z,98684.81
2024-02-08T21:34:03.206Z,98688.22
2024-02-08T21:36:36.931Z,98688.22
2024-02-08T21:39:19.451Z,98694.44
2024-02-08T21:41:52.438Z,98698.88
2024-02-08T21:44:26.684Z,98698.88
2024-02-08T21:47:07.657Z,98694.50
2024-02-08T21:49:41.293Z,98696.25
2024-02-08T21:52:16.455Z,98689.16
2024-02-08T21:54:49.788Z,98687.38
2024-02-08T21:57:25.444Z,98691.69
2024-02-08T21:59:58.324Z,98697.75
2024-02-08T22:02:34.154Z,98693.28
2024-02-08T22:05:08.223Z,98692.38
2024-02-08T22:07:43.659Z,98701.91
2024-02-08T22:10:16.757Z,98698.25
2024-02-08T22:12:49.712Z,98706.09
2024-02-08T22:15:22.597Z,98705.19
2024-02-08T22:17:57.882Z,98708.75
2024-02-08T22:20:31.287Z,98707.91
2024-02-08T22:23:05.417Z,98712.28
2024-02-08T22:25:38.283Z,98706.66
2024-02-08T22:28:12.608Z,98703.53
2024-02-08T22:30:46.554Z,98700.91
2024-02-08T22:33:20.643Z,98702.31
2024-02-08T22:35:53.821Z,98712.41
2024-02-08T22:38:26.736Z,98703.81
2024-02-08T22:41:00.022Z,98701.22
2024-02-08T22:43:32.908Z,98705.66
2024-02-08T22:46:05.908Z,98708.28
2024-02-08T22:48:40.098Z,98699.66
2024-02-08T22:51:12.998Z,98704.91
2024-02-08T22:53:45.882Z,98709.38
2024-02-08T22:56:18.789Z,98722.47
2024-02-08T22:58:51.803Z,98719.06
2024-02-08T23:01:35.247Z,98713.84
2024-02-08T23:04:11.060Z,98696.31
2024-02-08T23:06:46.201Z,98705.03
2024-02-08T23:09:19.185Z,98705.81
2024-02-08T23:11:52.030Z,98705.88
2024-02-08T23:14:25.012Z,98703.34
2024-02-08T23:16:57.880Z,98700.72
2024-02-08T23:19:33.864Z,98695.44
2024-02-08T23:22:08.476Z,98693.78
2024-02-08T23:24:42.366Z,98692.13
2024-02-08T23:27:15.177Z,98683.91
2024-02-08T23:29:49.784Z,98683.56
2024-02-08T23:32:23.957Z,98680.16
2024-02-08T23:34:58.841Z,98675.06
2024-02-08T23:37:31.915Z,98665.44
2024-02-08T23:40:09.435Z,98665.56
2024-02-08T23:42:43.856Z,98660.47
2024-02-08T23:45:17.572Z,98667.56
2024-02-08T23:47:51.040Z,98664.94
2024-02-08T23:50:26.486Z,98657.94
2024-02-08T23:53:01.660Z,98657.16
2024-02-08T23:55:38.954Z,98654.63
2024-02-08T23:58:15.436Z,98655.41
